Terminal Aerodrome Forecast
Issued by NWS

Home | Current Version | Previous Version | Text Only | Print | Product List | Glossary On
Versions: 1 2 3 4 5 6 7 8 9 10 11 12 13 14 15 16
713
FTUS41 KPBZ 081122
TAFLBE
TAF
KLBE 081122Z 0812/0912 21005KT P6SM BKN070
     FM081500 26012G22KT P6SM BKN020
     FM090300 27012G22KT P6SM BKN035
     FM090400 26010G20KT P6SM OVC025=

USA.gov is the U.S. government's official web portal to all federal, state and local government web resources and services.